Time;durP1;ratioP1;P1;durP2;ratioP2;P2;SDS_P1;SDS_P2;PMS_P1;PMS_P2;Temp;Humidity;BMP_temperature;BMP_pressure;BME280_temperature;BME280_humidity;BME280_pressure;Samples;Min_cycle;Max_cycle;Signal;HPM_P1;HPM_P2
2021/08/27 00:02:01;;;;;;;;;;;;;;;22.57;28.77;97402.22;4909625;29;1086;-80
2021/08/27 00:04:26;;;;;;;;;;;;;;;22.67;28.67;97400.22;4924746;29;883;-80
2021/08/27 00:06:52;;;;;;;;;;;;;;;22.50;28.72;97394.00;4909654;29;953;-80
2021/08/27 00:09:18;;;;;;;;;;;;;;;22.46;28.76;97387.69;4924761;29;1972;-80
2021/08/27 00:11:43;;;;;;;;;;;;;;;22.39;28.79;97383.09;4926111;29;883;-80
2021/08/27 00:14:09;;;;;;;;;;;;;;;22.52;28.63;97380.16;4925390;29;986;-80
2021/08/27 00:16:34;;;;;;;;;;;;;;;22.47;28.99;97378.72;4910990;29;1295;-80
2021/08/27 00:19:00;;;;;;;;;;;;;;;22.63;28.56;97380.50;4927887;29;808;-80
2021/08/27 00:21:25;;;;;;;;;;;;;;;22.61;28.58;97383.81;4929493;29;969;-80
2021/08/27 00:23:50;;;;;;;;;;;;;;;22.61;28.70;97383.03;4928462;29;712;-80
2021/08/27 00:26:38;;;;;;;;;;;;;;;22.54;28.60;97377.66;4929320;29;836;-80
2021/08/27 00:29:03;;;;;;;;;;;;;;;22.51;28.90;97384.25;4912499;29;2002;-80
2021/08/27 00:31:29;;;;;;;;;;;;;;;22.57;28.77;97385.22;4929307;29;1061;-80
2021/08/27 00:33:54;;;;;;;;;;;;;;;22.56;28.90;97383.63;4928077;29;922;-80
2021/08/27 00:36:20;;;;;;;;;;;;;;;22.58;28.83;97389.63;4929138;29;885;-80
2021/08/27 00:38:45;;;;;;;;;;;;;;;22.45;28.92;97391.78;4928258;29;791;-81
2021/08/27 00:41:12;;;;;;;;;;;;;;;22.52;28.93;97391.50;4929726;29;736;-81
2021/08/27 00:43:38;;;;;;;;;;;;;;;22.50;28.71;97394.00;4928228;29;674;-80
2021/08/27 00:46:03;;;;;;;;;;;;;;;22.54;28.96;97394.66;4928888;29;1021;-80
2021/08/27 00:48:28;;;;;;;;;;;;;;;22.52;28.74;97394.31;4927755;29;1970;-80
2021/08/27 00:50:54;;;;;;;;;;;;;;;22.48;28.93;97382.31;4929172;29;884;-80
2021/08/27 00:53:19;;;;;;;;;;;;;;;22.52;29.08;97380.16;4928336;29;667;-80
2021/08/27 00:55:45;;;;;;;;;;;;;;;22.57;28.91;97377.50;4928796;29;616;-80
2021/08/27 00:58:10;;;;;;;;;;;;;;;22.63;28.61;97386.97;4927153;29;855;-80
2021/08/27 01:00:36;;;;;;;;;;;;;;;22.56;29.00;97389.31;4928779;29;851;-80
2021/08/27 01:03:02;;;;;;;;;;;;;;;21.04;28.88;97162.53;4927302;29;850;-80
2021/08/27 01:05:27;;;;;;;;;;;;;;;22.63;28.74;97397.50;4928219;29;962;-80
2021/08/27 01:08:06;;;;;;;;;;;;;;;22.53;28.76;97398.72;4912363;29;937;-81
2021/08/27 01:10:32;;;;;;;;;;;;;;;22.71;28.61;97387.47;4929065;29;632;-80
2021/08/27 01:13:10;;;;;;;;;;;;;;;22.65;28.66;97382.88;4928105;29;716;-80
2021/08/27 01:15:38;;;;;;;;;;;;;;;22.67;28.49;97375.47;4942573;29;1017;-80
2021/08/27 01:18:05;;;;;;;;;;;;;;;22.51;28.71;97368.03;4928002;29;950;-81
2021/08/27 01:20:39;;;;;;;;;;;;;;;22.41;28.92;97371.28;4927979;29;585;-80
2021/08/27 01:23:34;;;;;;;;;;;;;;;22.44;29.02;97367.53;4928328;29;728;-81
2021/08/27 01:26:00;;;;;;;;;;;;;;;22.47;28.75;97372.25;4920436;29;1077;-80
2021/08/27 01:28:26;;;;;;;;;;;;;;;22.59;28.69;97362.88;4927310;29;1993;-80
2021/08/27 01:31:04;;;;;;;;;;;;;;;22.55;28.57;97357.34;4927380;29;842;-78
2021/08/27 01:33:29;;;;;;;;;;;;;;;22.52;28.92;97374.47;4926007;29;825;-78
2021/08/27 01:35:55;;;;;;;;;;;;;;;22.49;28.73;97364.09;4926120;29;983;-79
2021/08/27 01:38:21;;;;;;;;;;;;;;;22.48;28.68;97368.94;4925917;29;672;-78
2021/08/27 01:40:47;;;;;;;;;;;;;;;22.48;28.79;97374.63;4926152;29;636;-78
2021/08/27 01:43:12;;;;;;;;;;;;;;;22.56;28.60;97369.47;4925520;29;649;-78
2021/08/27 01:45:38;;;;;;;;;;;;;;;22.57;28.83;97371.03;4925552;29;996;-78
2021/08/27 01:48:05;;;;;;;;;;;;;;;22.63;28.54;97374.84;4925034;29;942;-79
2021/08/27 01:50:30;;;;;;;;;;;;;;;22.63;28.48;97367.09;4925675;29;1899;-78
2021/08/27 01:52:56;;;;;;;;;;;;;;;22.62;28.54;97365.53;4925341;29;715;-78
2021/08/27 01:55:21;;;;;;;;;;;;;;;22.56;28.71;97367.41;4924954;29;974;-78
2021/08/27 01:57:47;;;;;;;;;;;;;;;22.30;29.14;97364.00;4925609;29;695;-78
2021/08/27 02:00:12;;;;;;;;;;;;;;;22.52;28.91;97363.13;4924899;29;1010;-77
2021/08/27 02:02:38;;;;;;;;;;;;;;;22.60;28.44;97385.06;4925684;29;887;-77
2021/08/27 02:05:04;;;;;;;;;;;;;;;22.66;28.32;97362.56;4926094;29;1076;-79
2021/08/27 02:07:29;;;;;;;;;;;;;;;22.58;28.74;97355.59;4925462;29;783;-79
2021/08/27 02:09:55;;;;;;;;;;;;;;;22.63;28.43;97363.50;4924494;29;1894;-78
2021/08/27 02:12:21;;;;;;;;;;;;;;;22.69;28.50;97372.97;4925667;29;684;-79
2021/08/27 02:14:48;;;;;;;;;;;;;;;22.69;28.57;97372.97;4924413;29;1057;-79
2021/08/27 02:17:13;;;;;;;;;;;;;;;22.65;28.55;97361.00;4925863;29;940;-78
2021/08/27 02:19:39;;;;;;;;;;;;;;;22.65;28.73;97366.66;4924537;29;983;-79
2021/08/27 02:22:06;;;;;;;;;;;;;;;22.64;28.52;97362.25;4925925;29;720;-78
2021/08/27 02:24:33;;;;;;;;;;;;;;;22.63;28.56;97364.28;4924852;29;616;-79
2021/08/27 02:26:59;;;;;;;;;;;;;;;22.70;28.59;97362.44;4925647;29;675;-79
2021/08/27 02:29:24;;;;;;;;;;;;;;;22.79;28.30;97371.72;4924417;29;1895;-79
2021/08/27 02:31:52;;;;;;;;;;;;;;;22.71;28.83;97364.00;4925021;29;924;-79
2021/08/27 02:34:18;;;;;;;;;;;;;;;22.43;28.89;97366.72;4924741;29;831;-79
2021/08/27 02:36:43;;;;;;;;;;;;;;;22.45;29.00;97363.44;4924609;29;868;-79
2021/08/27 02:39:09;;;;;;;;;;;;;;;22.63;28.48;97369.16;4924186;29;641;-79
2021/08/27 02:41:34;;;;;;;;;;;;;;;22.60;28.75;97370.91;4924255;29;696;-79
2021/08/27 02:44:00;;;;;;;;;;;;;;;22.43;28.89;97365.94;4923606;29;953;-79
2021/08/27 02:46:25;;;;;;;;;;;;;;;22.56;28.76;97367.41;4925395;29;961;-79
2021/08/27 02:48:51;;;;;;;;;;;;;;;22.65;28.49;97363.81;4924788;29;1895;-79
2021/08/27 02:51:18;;;;;;;;;;;;;;;22.71;28.56;97370.47;4924534;29;716;-78
2021/08/27 02:53:44;;;;;;;;;;;;;;;22.63;28.50;97363.50;4924195;29;696;-78
2021/08/27 02:56:14;;;;;;;;;;;;;;;22.49;28.60;97369.75;4924597;29;656;-78
2021/08/27 02:58:40;;;;;;;;;;;;;;;22.58;28.49;97372.59;4923907;29;994;-78
2021/08/27 03:01:17;;;;;;;;;;;;;;;22.57;28.75;97371.03;4924657;29;935;-79
2021/08/27 03:03:47;;;;;;;;;;;;;;;22.65;28.45;97361.00;4924132;29;652;-78
2021/08/27 03:06:18;;;;;;;;;;;;;;;22.74;28.11;97363.88;4924828;29;620;-78
2021/08/27 03:08:50;;;;;;;;;;;;;;;22.50;28.53;97365.66;4923682;29;1969;-78
2021/08/27 03:11:23;;;;;;;;;;;;;;;22.50;28.50;97369.28;4925044;29;664;-78
2021/08/27 03:13:56;;;;;;;;;;;;;;;22.48;28.75;97373.81;4923385;29;991;-78
2021/08/27 03:16:22;;;;;;;;;;;;;;;22.42;28.62;97365.13;4923820;29;843;-78
2021/08/27 03:18:48;;;;;;;;;;;;;;;22.56;28.62;97363.78;4923736;29;601;-78
2021/08/27 03:21:19;;;;;;;;;;;;;;;22.59;28.62;97351.53;4924272;29;659;-78
2021/08/27 03:23:45;;;;;;;;;;;;;;;22.50;28.28;97360.78;4924140;29;699;-78
2021/08/27 03:26:14;;;;;;;;;;;;;;;22.60;28.54;97355.94;4924686;29;716;-78
2021/08/27 03:28:41;;;;;;;;;;;;;;;22.50;28.37;97369.28;4923511;29;1895;-79
2021/08/27 03:31:07;;;;;;;;;;;;;;;22.60;28.22;97358.78;4923628;29;943;-78
2021/08/27 03:33:32;;;;;;;;;;;;;;;22.65;28.20;97369.50;4923536;29;947;-78
2021/08/27 03:35:57;;;;;;;;;;;;;;;22.63;28.19;97366.31;4924195;29;652;-78
2021/08/27 03:38:24;;;;;;;;;;;;;;;22.63;28.25;97374.84;4923650;29;675;-79
2021/08/27 03:40:49;;;;;;;;;;;;;;;22.53;28.53;97381.72;4924023;29;739;-78
2021/08/27 03:43:15;;;;;;;;;;;;;;;22.57;28.29;97376.69;4923794;29;832;-78
2021/08/27 03:45:40;;;;;;;;;;;;;;;22.52;28.73;97380.16;4923878;29;829;-78
2021/08/27 03:48:06;;;;;;;;;;;;;;;22.70;28.05;97374.56;4907883;29;996;-78
2021/08/27 03:50:31;;;;;;;;;;;;;;;22.57;28.57;97379.53;4924882;29;1968;-78
2021/08/27 03:52:57;;;;;;;;;;;;;;;22.49;28.76;97375.44;4927330;29;720;-78
2021/08/27 03:55:23;;;;;;;;;;;;;;;22.56;28.29;97381.59;4928101;29;699;-78
2021/08/27 03:57:49;;;;;;;;;;;;;;;22.64;28.30;97376.44;4926600;29;937;-78
2021/08/27 04:00:14;;;;;;;;;;;;;;;22.71;28.18;97381.00;4927343;29;897;-78
2021/08/27 04:02:40;;;;;;;;;;;;;;;22.68;28.13;97381.94;4927700;29;948;-78
2021/08/27 04:05:06;;;;;;;;;;;;;;;22.48;28.52;97379.50;4927193;29;699;-78
2021/08/27 04:07:31;;;;;;;;;;;;;;;22.37;28.77;97379.91;4926817;29;782;-78
2021/08/27 04:09:57;;;;;;;;;;;;;;;22.42;28.74;97387.81;4927551;29;1964;-78
2021/08/27 04:12:22;;;;;;;;;;;;;;;22.64;28.20;97390.59;4927769;29;837;-78
2021/08/27 04:14:48;;;;;;;;;;;;;;;22.68;28.20;97393.28;4927196;29;1134;-78
2021/08/27 04:17:13;;;;;;;;;;;;;;;22.64;28.36;97407.63;4927860;29;847;-78
2021/08/27 04:19:42;;;;;;;;;;;;;;;22.55;28.36;97407.56;4927766;29;656;-78
2021/08/27 04:22:07;;;;;;;;;;;;;;;22.65;28.43;97403.53;4928058;29;659;-78
2021/08/27 04:24:33;;;;;;;;;;;;;;;22.58;28.37;97400.97;4926829;29;1245;-78
2021/08/27 04:26:58;;;;;;;;;;;;;;;22.54;28.45;97414.50;4927543;29;1052;-78
2021/08/27 04:29:24;;;;;;;;;;;;;;;22.47;28.50;97409.09;4927093;29;1969;-78
2021/08/27 04:31:49;;;;;;;;;;;;;;;22.51;28.45;97406.94;4927871;29;1007;-78
2021/08/27 04:34:14;;;;;;;;;;;;;;;22.44;28.49;97404.38;4926703;29;691;-78
2021/08/27 04:36:40;;;;;;;;;;;;;;;22.56;28.59;97409.16;4927842;29;661;-78
2021/08/27 04:39:05;;;;;;;;;;;;;;;22.48;28.43;97413.50;4926706;29;835;-78
2021/08/27 04:41:31;;;;;;;;;;;;;;;22.55;28.29;97418.91;4927506;29;891;-78
2021/08/27 04:43:56;;;;;;;;;;;;;;;22.39;28.59;97427.66;4927126;29;846;-77
2021/08/27 04:46:22;;;;;;;;;;;;;;;22.57;28.39;97427.75;4927618;29;998;-77
2021/08/27 04:48:47;;;;;;;;;;;;;;;22.56;28.55;97426.16;4927136;29;1974;-78
2021/08/27 04:51:13;;;;;;;;;;;;;;;22.51;28.66;97418.25;4928135;29;858;-78
2021/08/27 04:53:38;;;;;;;;;;;;;;;22.43;28.78;97422.63;4926179;29;648;-78
2021/08/27 04:56:04;;;;;;;;;;;;;;;22.59;28.35;97419.56;4927388;29;1112;-79
2021/08/27 04:58:29;;;;;;;;;;;;;;;22.67;28.32;97409.50;4925285;29;876;-78
2021/08/27 05:00:55;;;;;;;;;;;;;;;22.59;28.36;97408.22;4927218;29;1018;-78
2021/08/27 05:03:20;;;;;;;;;;;;;;;22.66;28.21;97410.78;4925859;29;700;-78
2021/08/27 05:05:46;;;;;;;;;;;;;;;22.64;28.54;97418.97;4927358;29;692;-79
2021/08/27 05:08:11;;;;;;;;;;;;;;;22.42;28.67;97415.38;4925790;29;819;-78
2021/08/27 05:10:37;;;;;;;;;;;;;;;22.39;28.75;97411.44;4926620;29;1963;-78
2021/08/27 05:13:02;;;;;;;;;;;;;;;22.51;28.55;97407.72;4926573;29;881;-79
2021/08/27 05:15:28;;;;;;;;;;;;;;;22.59;28.51;97409.03;4926967;29;1125;-79
2021/08/27 05:17:53;;;;;;;;;;;;;;;22.48;28.58;97419.97;4925443;29;837;-78
2021/08/27 05:20:19;;;;;;;;;;;;;;;22.44;28.81;97413.69;4926666;29;630;-78
2021/08/27 05:22:44;;;;;;;;;;;;;;;22.54;28.37;97420.97;4926930;29;644;-78
2021/08/27 05:25:10;;;;;;;;;;;;;;;22.53;28.50;97416.53;4926270;29;939;-78
2021/08/27 05:27:37;;;;;;;;;;;;;;;22.59;28.42;97413.91;4926408;29;925;-79
2021/08/27 05:30:04;;;;;;;;;;;;;;;22.45;28.43;97408.78;4925510;29;1978;-79
2021/08/27 05:32:29;;;;;;;;;;;;;;;22.54;28.30;97417.34;4925871;29;851;-78
2021/08/27 05:34:55;;;;;;;;;;;;;;;22.56;28.33;97414.81;4925740;29;666;-78
2021/08/27 05:37:20;;;;;;;;;;;;;;;22.48;28.49;97417.13;4925654;29;908;-78
2021/08/27 05:39:46;;;;;;;;;;;;;;;22.47;28.61;97411.94;4925994;29;880;-79
2021/08/27 05:42:11;;;;;;;;;;;;;;;22.46;28.54;97407.53;4925875;29;843;-78
2021/08/27 05:44:36;;;;;;;;;;;;;;;22.44;28.74;97412.88;4926030;29;914;-78
2021/08/27 05:47:02;;;;;;;;;;;;;;;22.52;28.60;97412.13;4926502;29;696;-79
2021/08/27 05:49:27;;;;;;;;;;;;;;;22.39;28.88;97410.66;4925984;29;1958;-78
2021/08/27 05:51:53;;;;;;;;;;;;;;;22.47;28.89;97407.06;4925860;29;664;-79
2021/08/27 05:54:18;;;;;;;;;;;;;;;22.68;28.27;97416.75;4925114;29;970;-78
2021/08/27 05:56:45;;;;;;;;;;;;;;;22.58;28.48;97412.31;4925296;29;939;-78
2021/08/27 05:59:10;;;;;;;;;;;;;;;22.54;28.59;97406.78;4925947;29;1014;-79
2021/08/27 06:01:36;;;;;;;;;;;;;;;22.64;28.52;97410.47;4910512;29;874;-78
2021/08/27 06:04:01;;;;;;;;;;;;;;;22.55;28.69;97407.56;4925876;29;612;-78
2021/08/27 06:06:27;;;;;;;;;;;;;;;22.48;28.62;97413.50;4925218;29;985;-78
2021/08/27 06:08:52;;;;;;;;;;;;;;;22.64;28.56;97410.47;4925157;29;1898;-79
2021/08/27 06:11:18;;;;;;;;;;;;;;;22.64;28.68;97410.47;4925132;29;958;-78
2021/08/27 06:13:43;;;;;;;;;;;;;;;22.57;28.65;97413.56;4924041;29;1001;-78
2021/08/27 06:16:08;;;;;;;;;;;;;;;22.51;28.61;97423.94;4925798;29;620;-79
2021/08/27 06:18:34;;;;;;;;;;;;;;;22.63;28.48;97421.00;4924429;29;700;-78
2021/08/27 06:20:59;;;;;;;;;;;;;;;22.59;28.63;97414.69;4926702;29;750;-79
2021/08/27 06:23:25;;;;;;;;;;;;;;;22.71;28.58;97418.66;4924174;29;1041;-78
2021/08/27 06:25:50;;;;;;;;;;;;;;;22.64;28.63;97421.81;4925549;29;880;-78
2021/08/27 06:28:16;;;;;;;;;;;;;;;22.59;28.55;97422.41;4924483;29;882;-78
2021/08/27 06:30:41;;;;;;;;;;;;;;;22.57;28.75;97405.84;4925772;29;1974;-78
2021/08/27 06:33:07;;;;;;;;;;;;;;;22.50;28.78;97405.34;4925194;29;784;-78
2021/08/27 06:35:32;;;;;;;;;;;;;;;22.55;28.64;97410.41;4924779;29;751;-78
2021/08/27 06:40:42;;;;;;;;;;;;;;;22.58;28.61;97430.09;4924574;29;906;-78
2021/08/27 06:43:08;;;;;;;;;;;;;;;22.65;28.69;97423.38;4924665;29;616;-78
2021/08/27 06:45:33;;;;;;;;;;;;;;;22.56;28.80;97426.94;4925346;29;613;-78
2021/08/27 06:47:58;;;;;;;;;;;;;;;22.48;28.85;97424.84;4924909;29;648;-78
2021/08/27 06:50:25;;;;;;;;;;;;;;;22.66;28.73;97424.94;4924943;29;1961;-78
2021/08/27 06:52:50;;;;;;;;;;;;;;;22.65;28.63;97429.03;4924635;29;883;-78
2021/08/27 06:55:16;;;;;;;;;;;;;;;22.47;29.02;97428.94;4924294;29;855;-78
2021/08/27 06:57:59;;;;;;;;;;;;;;;22.58;28.95;97440.66;4924969;29;899;-78
2021/08/27 07:00:26;;;;;;;;;;;;;;;22.64;28.67;97435.97;4925148;29;716;-78
2021/08/27 07:02:51;;;;;;;;;;;;;;;22.68;28.90;97442.28;4924420;29;887;-78
2021/08/27 07:05:17;;;;;;;;;;;;;;;22.64;28.75;97438.81;4924564;29;627;-78
2021/08/27 07:07:42;;;;;;;;;;;;;;;22.62;28.97;97436.44;4924765;29;948;-78
2021/08/27 07:10:08;;;;;;;;;;;;;;;22.68;28.86;97433.78;4923857;29;1962;-78
2021/08/27 07:12:33;;;;;;;;;;;;;;;22.68;28.60;97433.78;4925249;29;781;-79
2021/08/27 07:14:59;;;;;;;;;;;;;;;22.59;28.72;97426.03;4924374;29;1028;-78
2021/08/27 07:17:24;;;;;;;;;;;;;;;22.73;28.86;97430.31;4925043;29;731;-78
2021/08/27 07:19:50;;;;;;;;;;;;;;;22.68;28.98;97424.47;4924537;29;703;-78
2021/08/27 07:22:15;;;;;;;;;;;;;;;22.67;28.81;97425.75;4924815;29;883;-79
2021/08/27 07:24:41;;;;;;;;;;;;;;;22.66;28.86;97436.28;4924141;29;819;-78
2021/08/27 07:27:09;;;;;;;;;;;;;;;22.63;28.97;97431.53;4924232;29;936;-78
2021/08/27 07:29:35;;;;;;;;;;;;;;;22.51;29.03;97435.28;4924314;29;1907;-78
2021/08/27 07:32:00;;;;;;;;;;;;;;;22.48;29.21;97439.81;4924736;29;727;-78
2021/08/27 07:34:25;;;;;;;;;;;;;;;22.59;29.21;97436.59;4924488;29;680;-78
2021/08/27 07:36:51;;;;;;;;;;;;;;;22.60;29.29;97436.13;4924252;29;935;-78
2021/08/27 07:39:16;;;;;;;;;;;;;;;22.51;29.35;97435.28;4924163;29;900;-78
2021/08/27 07:41:45;;;;;;;;;;;;;;;22.55;29.02;97441.59;4924716;29;971;-78
2021/08/27 07:44:10;;;;;;;;;;;;;;;22.63;29.07;97448.56;4924330;29;719;-78
2021/08/27 07:46:37;;;;;;;;;;;;;;;22.60;28.92;97449.50;4924163;29;852;-79
2021/08/27 07:49:02;;;;;;;;;;;;;;;22.72;28.92;97447.81;4923945;29;1915;-78
2021/08/27 07:51:28;;;;;;;;;;;;;;;22.66;29.11;97447.63;4923544;29;1397;-79
2021/08/27 07:53:53;;;;;;;;;;;;;;;22.51;29.21;97446.63;4923771;29;912;-78
2021/08/27 07:56:18;;;;;;;;;;;;;;;22.63;29.14;97448.56;4924432;29;768;-78
2021/08/27 07:58:45;;;;;;;;;;;;;;;22.70;29.18;97482.31;4924200;29;668;-78
2021/08/27 08:01:11;;;;;;;;;;;;;;;22.70;28.87;97459.63;4923319;29;901;-78
2021/08/27 08:03:36;;;;;;;;;;;;;;;22.69;29.07;97462.91;4923087;29;783;-78
2021/08/27 08:06:02;;;;;;;;;;;;;;;22.76;29.01;97465.50;4924273;29;1051;-78
2021/08/27 08:08:27;;;;;;;;;;;;;;;22.65;29.35;97468.75;4920315;29;1903;-78
2021/08/27 08:10:53;;;;;;;;;;;;;;;22.77;29.12;97469.91;4924786;29;846;-79
2021/08/27 08:13:18;;;;;;;;;;;;;;;22.69;28.95;97475.06;4924168;29;660;-78
2021/08/27 08:15:44;;;;;;;;;;;;;;;22.74;29.02;97470.81;4924418;29;1013;-79
2021/08/27 08:18:09;;;;;;;;;;;;;;;22.61;29.03;97468.09;4924073;29;661;-78
2021/08/27 08:20:34;;;;;;;;;;;;;;;22.76;29.06;97457.75;4924281;29;948;-79
2021/08/27 08:23:00;;;;;;;;;;;;;;;22.57;29.16;97459.72;4923954;29;1001;-79
2021/08/27 08:25:25;;;;;;;;;;;;;;;22.54;29.27;97462.72;4924486;29;922;-78
2021/08/27 08:27:51;;;;;;;;;;;;;;;22.65;29.38;97463.06;4924239;29;678;-79
2021/08/27 08:30:16;;;;;;;;;;;;;;;22.72;29.05;97457.13;4924148;29;1899;-78
2021/08/27 08:32:42;;;;;;;;;;;;;;;22.63;29.41;97459.91;4923420;29;766;-78
2021/08/27 08:35:07;;;;;;;;;;;;;;;22.66;29.22;97458.97;4923797;29;908;-79
2021/08/27 08:37:33;;;;;;;;;;;;;;;22.59;29.62;97462.91;4924049;29;820;-78
2021/08/27 08:39:58;;;;;;;;;;;;;;;22.53;29.64;97449.75;4927085;29;1084;-79
2021/08/27 08:42:24;;;;;;;;;;;;;;;22.55;29.52;97441.59;4927787;29;601;-78
2021/08/27 08:44:49;;;;;;;;;;;;;;;22.69;29.29;97441.03;4926478;29;585;-79
2021/08/27 08:47:15;;;;;;;;;;;;;;;22.74;29.30;97437.59;4927574;29;735;-78
2021/08/27 08:49:41;;;;;;;;;;;;;;;22.72;29.27;97440.09;4926080;29;1951;-78
2021/08/27 08:52:07;;;;;;;;;;;;;;;22.64;29.39;97427.47;4927305;29;895;-79
2021/08/27 08:54:32;;;;;;;;;;;;;;;22.69;29.41;97435.38;4926614;29;875;-78
2021/08/27 08:56:58;;;;;;;;;;;;;;;22.75;29.12;97429.88;4926790;29;922;-78
2021/08/27 08:59:23;;;;;;;;;;;;;;;22.84;29.11;97436.34;4927084;29;695;-79
2021/08/27 09:01:48;;;;;;;;;;;;;;;22.73;29.38;97424.66;4926623;29;723;-78
2021/08/27 09:04:14;;;;;;;;;;;;;;;22.64;29.38;97421.81;4926764;29;1043;-79
2021/08/27 09:06:39;;;;;;;;;;;;;;;22.68;29.27;97416.75;4926965;29;972;-78
2021/08/27 09:09:05;;;;;;;;;;;;;;;22.71;29.52;97415.84;4926053;29;1891;-78
2021/08/27 09:11:30;;;;;;;;;;;;;;;22.75;29.58;97416.47;4927377;29;699;-78
2021/08/27 09:13:57;;;;;;;;;;;;;;;22.70;29.66;97416.31;4921615;29;1006;-79
2021/08/27 09:16:22;;;;;;;;;;;;;;;22.66;29.67;97413.59;4892118;29;688;-78
2021/08/27 09:18:48;;;;;;;;;;;;;;;22.95;29.01;97409.63;4891338;29;831;-79
2021/08/27 09:21:34;;;;;;;;;;;;;;;22.77;29.47;97413.19;4891022;29;953;-79
2021/08/27 09:24:08;;;;;;;;;;;;;;;22.67;29.78;97409.50;4907658;29;759;-78
2021/08/27 09:26:34;;;;;;;;;;;;;;;22.74;29.71;97411.25;4908260;29;707;-78
2021/08/27 09:28:59;;;;;;;;;;;;;;;22.74;29.64;97409.25;4891123;29;1899;-78
2021/08/27 09:31:34;;;;;;;;;;;;;;;22.65;29.56;97400.69;4891710;29;617;-78
2021/08/27 09:34:00;;;;;;;;;;;;;;;22.57;29.96;97393.72;4891074;29;865;-79
2021/08/27 09:36:25;;;;;;;;;;;;;;;22.62;29.57;97390.28;4890684;29;919;-78
2021/08/27 09:39:06;;;;;;;;;;;;;;;22.59;29.57;97385.56;4891184;29;940;-79
2021/08/27 09:41:31;;;;;;;;;;;;;;;22.54;29.63;97389.78;4891892;29;673;-78
2021/08/27 09:43:57;;;;;;;;;;;;;;;22.54;29.85;97400.34;4890819;29;757;-79
2021/08/27 09:46:36;;;;;;;;;;;;;;;22.68;29.63;97399.75;4891440;29;672;-78
2021/08/27 09:49:31;;;;;;;;;;;;;;;22.90;29.30;97421.59;4920512;23;1930;-77
2021/08/27 09:52:05;;;;;;;;;;;;;;;23.46;30.63;97406.25;4983052;28;678;-77
2021/08/27 09:54:31;;;;;;;;;;;;;;;23.24;31.10;97395.81;4982551;28;980;-77
2021/08/27 09:57:03;;;;;;;;;;;;;;;22.92;31.66;97399.22;4990296;23;1510;-78
2021/08/27 09:59:38;;;;;;;;;;;;;;;23.55;31.68;97392.84;4965915;28;970;-78
2021/08/27 10:02:18;;;;;;;;;;;;;;;23.90;32.24;97376.28;4990270;23;1557;-77
2021/08/27 10:04:52;;;;;;;;;;;;;;;24.30;32.49;97366.72;4990306;23;1713;-77
2021/08/27 10:07:28;;;;;;;;;;;;;;;24.64;32.55;97361.88;4982562;28;965;-77
2021/08/27 10:09:53;;;;;;;;;;;;;;;24.11;33.21;97353.84;4982081;28;1891;-77
2021/08/27 10:12:19;;;;;;;;;;;;;;;23.63;33.03;97348.72;4982592;28;714;-77
2021/08/27 10:14:44;;;;;;;;;;;;;;;23.45;32.80;97353.56;4999590;28;1393;-77
2021/08/27 10:17:10;;;;;;;;;;;;;;;23.19;32.58;97353.88;5001455;28;643;-77
2021/08/27 10:19:35;;;;;;;;;;;;;;;23.22;31.84;97347.25;5000853;28;1081;-77
2021/08/27 10:22:01;;;;;;;;;;;;;;;23.31;31.21;97343.63;5001609;28;813;-77
2021/08/27 10:24:26;;;;;;;;;;;;;;;23.24;30.77;97347.56;5001790;28;1070;-77
2021/08/27 10:26:52;;;;;;;;;;;;;;;23.16;30.59;97359.69;5002210;28;698;-77
2021/08/27 10:29:18;;;;;;;;;;;;;;;23.16;30.00;97363.34;5000978;28;1964;-77
2021/08/27 10:31:44;;;;;;;;;;;;;;;23.18;29.61;97362.88;5001874;28;487;-77
2021/08/27 10:34:10;;;;;;;;;;;;;;;23.20;29.20;97355.44;5000346;28;852;-77
2021/08/27 10:36:35;;;;;;;;;;;;;;;23.09;29.22;97355.13;5000686;28;922;-77
2021/08/27 10:39:01;;;;;;;;;;;;;;;23.03;29.08;97357.00;5001387;28;915;-77
2021/08/27 10:41:32;;;;;;;;;;;;;;;22.91;29.10;97361.56;5001570;28;644;-77
2021/08/27 10:43:58;;;;;;;;;;;;;;;22.93;29.09;97363.94;5001576;28;936;-77
2021/08/27 10:46:24;;;;;;;;;;;;;;;22.96;28.71;97368.66;5001601;28;637;-77
2021/08/27 10:48:50;;;;;;;;;;;;;;;22.97;28.60;97373.88;5000893;28;1903;-78
2021/08/27 10:51:35;;;;;;;;;;;;;;;22.94;29.10;97371.97;5000401;28;880;-77
2021/08/27 10:54:00;;;;;;;;;;;;;;;22.93;28.77;97369.59;5001433;28;788;-77
2021/08/27 10:56:44;;;;;;;;;;;;;;;23.01;28.61;97376.56;5001313;28;631;-77
2021/08/27 10:59:10;;;;;;;;;;;;;;;22.90;28.79;97374.19;5001838;28;858;-77
2021/08/27 11:01:36;;;;;;;;;;;;;;;22.91;28.78;97372.13;5000703;28;671;-77
2021/08/27 11:04:07;;;;;;;;;;;;;;;22.86;28.79;97365.78;5000711;28;1035;-77
2021/08/27 11:06:42;;;;;;;;;;;;;;;22.82;28.85;97376.47;5001153;28;944;-77
2021/08/27 11:09:19;;;;;;;;;;;;;;;23.00;28.59;97363.59;5000229;28;1917;-77
2021/08/27 11:11:45;;;;;;;;;;;;;;;22.86;28.78;97365.00;5001036;28;631;-78
2021/08/27 11:14:14;;;;;;;;;;;;;;;22.91;28.59;97355.09;5000339;28;607;-78
2021/08/27 11:16:40;;;;;;;;;;;;;;;22.83;28.63;97352.53;5001259;28;668;-78
2021/08/27 11:19:24;;;;;;;;;;;;;;;22.86;28.47;97351.59;5000836;28;949;-77
2021/08/27 11:21:53;;;;;;;;;;;;;;;22.84;28.46;97351.25;5000794;28;857;-78
2021/08/27 11:24:20;;;;;;;;;;;;;;;22.82;28.42;97344.50;5000260;28;670;-77
2021/08/27 11:26:48;;;;;;;;;;;;;;;22.99;28.06;97356.38;5000452;28;667;-77
2021/08/27 11:29:32;;;;;;;;;;;;;;;22.86;28.33;97362.94;5000850;28;1910;-77
2021/08/27 11:32:06;;;;;;;;;;;;;;;22.96;28.45;97357.31;5000999;28;638;-77
2021/08/27 11:34:50;;;;;;;;;;;;;;;23.00;28.35;97357.94;5000652;28;883;-77
2021/08/27 11:37:15;;;;;;;;;;;;;;;22.81;28.33;97357.88;5000712;28;929;-78
2021/08/27 11:39:41;;;;;;;;;;;;;;;22.84;28.55;97361.81;4999803;28;838;-77
2021/08/27 11:42:06;;;;;;;;;;;;;;;22.87;28.33;97356.00;4999851;28;834;-77
2021/08/27 11:44:40;;;;;;;;;;;;;;;22.81;28.07;97349.38;5000858;28;706;-77
2021/08/27 11:47:06;;;;;;;;;;;;;;;22.77;28.41;97351.56;5000312;28;788;-77
2021/08/27 11:49:35;;;;;;;;;;;;;;;22.97;28.01;97354.00;5000186;28;1910;-77
2021/08/27 11:52:10;;;;;;;;;;;;;;;22.83;28.14;97363.06;4999976;28;997;-77
2021/08/27 11:54:35;;;;;;;;;;;;;;;22.66;28.52;97356.91;5000554;28;979;-77
2021/08/27 11:57:01;;;;;;;;;;;;;;;22.75;28.09;97356.94;4999793;28;814;-77
2021/08/27 11:59:27;;;;;;;;;;;;;;;22.80;27.88;97361.19;5000604;28;650;-77
2021/08/27 12:01:53;;;;;;;;;;;;;;;22.82;28.02;97359.47;4999900;28;654;-77
2021/08/27 12:04:30;;;;;;;;;;;;;;;22.99;27.75;97356.38;5158979;23;3777;-77
2021/08/27 12:07:12;;;;;;;;;;;;;;;23.43;30.05;97373.13;4962143;29;898;-77
2021/08/27 12:09:44;;;;;;;;;;;;;;;23.46;30.63;97366.50;4961436;29;1979;-77
2021/08/27 12:12:29;;;;;;;;;;;;;;;23.08;31.04;97370.56;4962808;28;718;-77
2021/08/27 12:15:01;;;;;;;;;;;;;;;22.95;30.90;97361.41;4965400;29;654;-76
2021/08/27 12:17:29;;;;;;;;;;;;;;;22.90;30.57;97364.84;4965518;28;678;-77
2021/08/27 12:20:01;;;;;;;;;;;;;;;22.83;30.91;97358.19;4965421;29;619;-77
2021/08/27 12:22:37;;;;;;;;;;;;;;;22.91;30.47;97355.09;4964567;29;874;-77
2021/08/27 12:25:25;;;;;;;;;;;;;;;22.86;30.46;97359.31;4950321;29;891;-77
2021/08/27 12:28:04;;;;;;;;;;;;;;;23.20;30.97;97358.28;5029607;23;3689;-76
2021/08/27 12:30:54;;;;;;;;;;;;;;;23.56;32.30;97365.25;5003705;28;1975;-78
2021/08/27 12:33:31;;;;;;;;;;;;;;;23.37;31.97;97367.31;5003190;28;886;-77
2021/08/27 12:36:03;;;;;;;;;;;;;;;23.16;31.41;97360.50;5003366;28;626;-77
2021/08/27 12:38:28;;;;;;;;;;;;;;;22.43;32.47;97365.94;5003742;28;616;-76
2021/08/27 12:41:19;;;;;;;;;;;;;;;22.81;31.74;97374.91;5003905;28;665;-77
2021/08/27 12:43:52;;;;;;;;;;;;;;;22.88;30.93;97368.16;5002869;28;971;-77
2021/08/27 12:46:27;;;;;;;;;;;;;;;22.96;30.11;97363.00;5003318;28;935;-77
2021/08/27 12:49:28;;;;;;;;;;;;;;;22.96;29.55;97368.66;5002938;28;1969;-77
2021/08/27 12:52:01;;;;;;;;;;;;;;;22.93;29.70;97367.53;4993615;28;1140;-77
2021/08/27 12:54:27;;;;;;;;;;;;;;;22.98;29.34;97366.94;5002676;28;1203;-77
2021/08/27 12:56:59;;;;;;;;;;;;;;;22.91;29.40;97360.78;5003486;28;654;-76
2021/08/27 12:59:24;;;;;;;;;;;;;;;22.96;28.92;97363.00;5003232;28;814;-77
2021/08/27 13:01:57;;;;;;;;;;;;;;;22.90;29.18;97353.50;5003176;28;880;-77
2021/08/27 13:04:41;;;;;;;;;;;;;;;22.84;29.07;97351.25;5002746;28;942;-77
2021/08/27 13:07:24;;;;;;;;;;;;;;;22.85;28.75;97341.50;5003279;28;683;-77
2021/08/27 13:10:08;;;;;;;;;;;;;;;22.81;28.67;97346.53;5003206;28;1963;-77
2021/08/27 13:12:40;;;;;;;;;;;;;;;22.79;28.93;97349.03;5003064;28;598;-77